<?xml version="1.0" encoding="UTF-8" standalone="no" ?>
<gpx xmlns="http://www.topografix.com/GPX/1/1" xmlns:xsi="http://www.w3.org/2001/XMLSchema-instance" xsi:schemaLocation="http://www.topografix.com/GPX/1/1 http://www.topografix.com/GPX/1/1/gpx.xsd" version="1.1" creator="VisuGPX - https://www.visugpx.com">
  <metadata>
    <name>Davrinche20101</name>
    <desc><![CDATA[la partie 1 des repérages]]></desc>
  </metadata>
  <trk>
    <name><![CDATA[--Orcines-- OR-5370346:ser-fr02-vtt-l]]></name>
    <trkseg>
      <trkpt lat="45.79886" lon="2.99216">
        <ele>967</ele>
        <time>2015-10-17T14:41:33Z</time>
      </trkpt>
      <trkpt lat="45.79886" lon="2.99173">
        <ele>966</ele>
        <time>2015-10-17T14:43:33Z</time>
      </trkpt>
      <trkpt lat="45.79896" lon="2.99073">
        <ele>963</ele>
        <time>2015-10-17T14:45:33Z</time>
      </trkpt>
      <trkpt lat="45.79873" lon="2.98976">
        <ele>964</ele>
        <time>2015-10-17T14:47:33Z</time>
      </trkpt>
      <trkpt lat="45.79853" lon="2.98902">
        <ele>964</ele>
        <time>2015-10-17T14:49:33Z</time>
      </trkpt>
      <trkpt lat="45.7984" lon="2.98852">
        <ele>965</ele>
        <time>2015-10-17T14:51:33Z</time>
      </trkpt>
      <trkpt lat="45.79816" lon="2.98773">
        <ele>964</ele>
        <time>2015-10-17T14:53:33Z</time>
      </trkpt>
      <trkpt lat="45.79851" lon="2.9874">
        <ele>966</ele>
        <time>2015-10-17T14:55:33Z</time>
      </trkpt>
      <trkpt lat="45.79881" lon="2.98713">
        <ele>966</ele>
        <time>2015-10-17T14:57:33Z</time>
      </trkpt>
      <trkpt lat="45.79865" lon="2.9863">
        <ele>963</ele>
        <time>2015-10-17T14:59:33Z</time>
      </trkpt>
      <trkpt lat="45.79838" lon="2.98561">
        <ele>962</ele>
        <time>2015-10-17T15:01:33Z</time>
      </trkpt>
      <trkpt lat="45.7983" lon="2.98525">
        <ele>963</ele>
        <time>2015-10-17T15:03:33Z</time>
      </trkpt>
      <trkpt lat="45.79821" lon="2.98484">
        <ele>965</ele>
        <time>2015-10-17T15:05:33Z</time>
      </trkpt>
      <trkpt lat="45.79796" lon="2.9836">
        <ele>971</ele>
        <time>2015-10-17T15:07:33Z</time>
      </trkpt>
      <trkpt lat="45.798" lon="2.98318">
        <ele>973</ele>
        <time>2015-10-17T15:09:33Z</time>
      </trkpt>
      <trkpt lat="45.79846" lon="2.98339">
        <ele>972</ele>
        <time>2015-10-17T15:11:33Z</time>
      </trkpt>
      <trkpt lat="45.7987" lon="2.98346">
        <ele>972</ele>
        <time>2015-10-17T15:13:33Z</time>
      </trkpt>
      <trkpt lat="45.79896" lon="2.98363">
        <ele>971</ele>
        <time>2015-10-17T15:15:33Z</time>
      </trkpt>
      <trkpt lat="45.79949" lon="2.98353">
        <ele>971</ele>
        <time>2015-10-17T15:17:33Z</time>
      </trkpt>
      <trkpt lat="45.79983" lon="2.98346">
        <ele>969</ele>
        <time>2015-10-17T15:19:33Z</time>
      </trkpt>
      <trkpt lat="45.80034" lon="2.98363">
        <ele>969</ele>
        <time>2015-10-17T15:21:33Z</time>
      </trkpt>
      <trkpt lat="45.80091" lon="2.98382">
        <ele>970</ele>
        <time>2015-10-17T15:23:33Z</time>
      </trkpt>
      <trkpt lat="45.80121" lon="2.98387">
        <ele>972</ele>
        <time>2015-10-17T15:25:33Z</time>
      </trkpt>
      <trkpt lat="45.80149" lon="2.98396">
        <ele>973</ele>
        <time>2015-10-17T15:27:33Z</time>
      </trkpt>
      <trkpt lat="45.80172" lon="2.98387">
        <ele>975</ele>
        <time>2015-10-17T15:29:33Z</time>
      </trkpt>
      <trkpt lat="45.80209" lon="2.98399">
        <ele>978</ele>
        <time>2015-10-17T15:31:33Z</time>
      </trkpt>
      <trkpt lat="45.80222" lon="2.98437">
        <ele>979</ele>
        <time>2015-10-17T15:33:33Z</time>
      </trkpt>
      <trkpt lat="45.80245" lon="2.98463">
        <ele>981</ele>
        <time>2015-10-17T15:35:33Z</time>
      </trkpt>
      <trkpt lat="45.80269" lon="2.98477">
        <ele>981</ele>
        <time>2015-10-17T15:37:33Z</time>
      </trkpt>
      <trkpt lat="45.80303" lon="2.98487">
        <ele>981</ele>
        <time>2015-10-17T15:39:33Z</time>
      </trkpt>
      <trkpt lat="45.80363" lon="2.98542">
        <ele>979</ele>
        <time>2015-10-17T15:41:33Z</time>
      </trkpt>
      <trkpt lat="45.80343" lon="2.98606">
        <ele>976</ele>
        <time>2015-10-17T15:43:33Z</time>
      </trkpt>
      <trkpt lat="45.8032" lon="2.98688">
        <ele>974</ele>
        <time>2015-10-17T15:45:33Z</time>
      </trkpt>
      <trkpt lat="45.80335" lon="2.98707">
        <ele>975</ele>
        <time>2015-10-17T15:47:33Z</time>
      </trkpt>
      <trkpt lat="45.8032" lon="2.98766">
        <ele>975</ele>
        <time>2015-10-17T15:49:33Z</time>
      </trkpt>
      <trkpt lat="45.80347" lon="2.98769">
        <ele>976</ele>
        <time>2015-10-17T15:51:33Z</time>
      </trkpt>
      <trkpt lat="45.80384" lon="2.98759">
        <ele>977</ele>
        <time>2015-10-17T15:53:33Z</time>
      </trkpt>
      <trkpt lat="45.80381" lon="2.98815">
        <ele>978</ele>
        <time>2015-10-17T15:55:33Z</time>
      </trkpt>
      <trkpt lat="45.80372" lon="2.98886">
        <ele>977</ele>
        <time>2015-10-17T15:57:33Z</time>
      </trkpt>
      <trkpt lat="45.80394" lon="2.98918">
        <ele>977</ele>
        <time>2015-10-17T15:59:33Z</time>
      </trkpt>
      <trkpt lat="45.80412" lon="2.98993">
        <ele>973</ele>
        <time>2015-10-17T16:01:33Z</time>
      </trkpt>
      <trkpt lat="45.80418" lon="2.99066">
        <ele>972</ele>
        <time>2015-10-17T16:03:33Z</time>
      </trkpt>
      <trkpt lat="45.80433" lon="2.99113">
        <ele>974</ele>
        <time>2015-10-17T16:05:33Z</time>
      </trkpt>
      <trkpt lat="45.80457" lon="2.9915">
        <ele>977</ele>
        <time>2015-10-17T16:07:33Z</time>
      </trkpt>
      <trkpt lat="45.80481" lon="2.99102">
        <ele>977</ele>
        <time>2015-10-17T16:09:33Z</time>
      </trkpt>
      <trkpt lat="45.80506" lon="2.99057">
        <ele>978</ele>
        <time>2015-10-17T16:11:33Z</time>
      </trkpt>
      <trkpt lat="45.80506" lon="2.98993">
        <ele>978</ele>
        <time>2015-10-17T16:13:33Z</time>
      </trkpt>
      <trkpt lat="45.80532" lon="2.98931">
        <ele>980</ele>
        <time>2015-10-17T16:15:33Z</time>
      </trkpt>
      <trkpt lat="45.80554" lon="2.98892">
        <ele>981</ele>
        <time>2015-10-17T16:17:33Z</time>
      </trkpt>
      <trkpt lat="45.80587" lon="2.98847">
        <ele>981</ele>
        <time>2015-10-17T16:19:33Z</time>
      </trkpt>
      <trkpt lat="45.80605" lon="2.9883">
        <ele>980</ele>
        <time>2015-10-17T16:21:33Z</time>
      </trkpt>
      <trkpt lat="45.80629" lon="2.98843">
        <ele>981</ele>
        <time>2015-10-17T16:23:33Z</time>
      </trkpt>
      <trkpt lat="45.80661" lon="2.98836">
        <ele>981</ele>
        <time>2015-10-17T16:25:33Z</time>
      </trkpt>
      <trkpt lat="45.80723" lon="2.98873">
        <ele>980</ele>
        <time>2015-10-17T16:27:33Z</time>
      </trkpt>
      <trkpt lat="45.80732" lon="2.98839">
        <ele>979</ele>
        <time>2015-10-17T16:29:33Z</time>
      </trkpt>
      <trkpt lat="45.80708" lon="2.98806">
        <ele>980</ele>
        <time>2015-10-17T16:31:33Z</time>
      </trkpt>
      <trkpt lat="45.80693" lon="2.98753">
        <ele>981</ele>
        <time>2015-10-17T16:33:33Z</time>
      </trkpt>
      <trkpt lat="45.80671" lon="2.98633">
        <ele>984</ele>
        <time>2015-10-17T16:35:33Z</time>
      </trkpt>
      <trkpt lat="45.80668" lon="2.98566">
        <ele>985</ele>
        <time>2015-10-17T16:37:33Z</time>
      </trkpt>
      <trkpt lat="45.80734" lon="2.98628">
        <ele>988</ele>
        <time>2015-10-17T16:39:33Z</time>
      </trkpt>
      <trkpt lat="45.80803" lon="2.98583">
        <ele>996</ele>
        <time>2015-10-17T16:41:33Z</time>
      </trkpt>
      <trkpt lat="45.80856" lon="2.98536">
        <ele>1007</ele>
        <time>2015-10-17T16:43:33Z</time>
      </trkpt>
      <trkpt lat="45.80919" lon="2.98457">
        <ele>1027</ele>
        <time>2015-10-17T16:45:33Z</time>
      </trkpt>
      <trkpt lat="45.80949" lon="2.98401">
        <ele>1038</ele>
        <time>2015-10-17T16:47:33Z</time>
      </trkpt>
      <trkpt lat="45.81005" lon="2.98371">
        <ele>1043</ele>
        <time>2015-10-17T16:49:33Z</time>
      </trkpt>
      <trkpt lat="45.81057" lon="2.98321">
        <ele>1046</ele>
        <time>2015-10-17T16:51:33Z</time>
      </trkpt>
      <trkpt lat="45.81096" lon="2.98246">
        <ele>1056</ele>
        <time>2015-10-17T16:53:33Z</time>
      </trkpt>
      <trkpt lat="45.81115" lon="2.98184">
        <ele>1066</ele>
        <time>2015-10-17T16:55:33Z</time>
      </trkpt>
      <trkpt lat="45.81165" lon="2.98229">
        <ele>1059</ele>
        <time>2015-10-17T16:57:33Z</time>
      </trkpt>
      <trkpt lat="45.81205" lon="2.98289">
        <ele>1071</ele>
        <time>2015-10-17T16:59:33Z</time>
      </trkpt>
      <trkpt lat="45.81244" lon="2.98379">
        <ele>1074</ele>
        <time>2015-10-17T17:01:33Z</time>
      </trkpt>
      <trkpt lat="45.81221" lon="2.9833">
        <ele>1073</ele>
        <time>2015-10-17T17:03:33Z</time>
      </trkpt>
      <trkpt lat="45.81177" lon="2.98244">
        <ele>1063</ele>
        <time>2015-10-17T17:05:33Z</time>
      </trkpt>
      <trkpt lat="45.81147" lon="2.98197">
        <ele>1063</ele>
        <time>2015-10-17T17:07:33Z</time>
      </trkpt>
      <trkpt lat="45.81111" lon="2.98199">
        <ele>1064</ele>
        <time>2015-10-17T17:09:33Z</time>
      </trkpt>
      <trkpt lat="45.81118" lon="2.98107">
        <ele>1076</ele>
        <time>2015-10-17T17:11:33Z</time>
      </trkpt>
      <trkpt lat="45.81133" lon="2.98049">
        <ele>1077</ele>
        <time>2015-10-17T17:13:33Z</time>
      </trkpt>
      <trkpt lat="45.81172" lon="2.98006">
        <ele>1069</ele>
        <time>2015-10-17T17:15:33Z</time>
      </trkpt>
      <trkpt lat="45.81196" lon="2.97909">
        <ele>1067</ele>
        <time>2015-10-17T17:17:33Z</time>
      </trkpt>
      <trkpt lat="45.81224" lon="2.97843">
        <ele>1056</ele>
        <time>2015-10-17T17:19:33Z</time>
      </trkpt>
      <trkpt lat="45.81242" lon="2.97759">
        <ele>1034</ele>
        <time>2015-10-17T17:21:33Z</time>
      </trkpt>
      <trkpt lat="45.81277" lon="2.97691">
        <ele>1021</ele>
        <time>2015-10-17T17:23:33Z</time>
      </trkpt>
      <trkpt lat="45.81316" lon="2.97637">
        <ele>1003</ele>
        <time>2015-10-17T17:25:33Z</time>
      </trkpt>
      <trkpt lat="45.81329" lon="2.97605">
        <ele>993</ele>
        <time>2015-10-17T17:27:33Z</time>
      </trkpt>
      <trkpt lat="45.81348" lon="2.97547">
        <ele>979</ele>
        <time>2015-10-17T17:29:33Z</time>
      </trkpt>
      <trkpt lat="45.8136" lon="2.975">
        <ele>969</ele>
        <time>2015-10-17T17:31:33Z</time>
      </trkpt>
      <trkpt lat="45.81371" lon="2.97452">
        <ele>968</ele>
        <time>2015-10-17T17:33:33Z</time>
      </trkpt>
      <trkpt lat="45.81378" lon="2.97418">
        <ele>967</ele>
        <time>2015-10-17T17:35:33Z</time>
      </trkpt>
      <trkpt lat="45.81402" lon="2.97392">
        <ele>968</ele>
        <time>2015-10-17T17:37:33Z</time>
      </trkpt>
      <trkpt lat="45.81424" lon="2.97364">
        <ele>970</ele>
        <time>2015-10-17T17:39:33Z</time>
      </trkpt>
      <trkpt lat="45.81449" lon="2.97343">
        <ele>970</ele>
        <time>2015-10-17T17:41:33Z</time>
      </trkpt>
      <trkpt lat="45.81469" lon="2.97319">
        <ele>970</ele>
        <time>2015-10-17T17:43:33Z</time>
      </trkpt>
      <trkpt lat="45.81502" lon="2.97295">
        <ele>970</ele>
        <time>2015-10-17T17:45:33Z</time>
      </trkpt>
      <trkpt lat="45.81533" lon="2.97272">
        <ele>969</ele>
        <time>2015-10-17T17:47:33Z</time>
      </trkpt>
      <trkpt lat="45.81563" lon="2.97244">
        <ele>967</ele>
        <time>2015-10-17T17:49:33Z</time>
      </trkpt>
      <trkpt lat="45.81589" lon="2.97231">
        <ele>966</ele>
        <time>2015-10-17T17:51:33Z</time>
      </trkpt>
      <trkpt lat="45.8161" lon="2.9721">
        <ele>966</ele>
        <time>2015-10-17T17:53:33Z</time>
      </trkpt>
      <trkpt lat="45.81639" lon="2.97188">
        <ele>965</ele>
        <time>2015-10-17T17:55:33Z</time>
      </trkpt>
      <trkpt lat="45.81659" lon="2.9718">
        <ele>963</ele>
        <time>2015-10-17T17:57:33Z</time>
      </trkpt>
      <trkpt lat="45.81665" lon="2.97164">
        <ele>963</ele>
        <time>2015-10-17T17:59:33Z</time>
      </trkpt>
      <trkpt lat="45.81649" lon="2.97139">
        <ele>966</ele>
        <time>2015-10-17T18:01:33Z</time>
      </trkpt>
      <trkpt lat="45.81638" lon="2.97107">
        <ele>969</ele>
        <time>2015-10-17T18:03:33Z</time>
      </trkpt>
      <trkpt lat="45.81621" lon="2.97079">
        <ele>971</ele>
        <time>2015-10-17T18:05:33Z</time>
      </trkpt>
      <trkpt lat="45.81607" lon="2.97053">
        <ele>973</ele>
        <time>2015-10-17T18:07:33Z</time>
      </trkpt>
      <trkpt lat="45.816" lon="2.97028">
        <ele>973</ele>
        <time>2015-10-17T18:09:33Z</time>
      </trkpt>
      <trkpt lat="45.81584" lon="2.97006">
        <ele>973</ele>
        <time>2015-10-17T18:11:33Z</time>
      </trkpt>
      <trkpt lat="45.81574" lon="2.96978">
        <ele>973</ele>
        <time>2015-10-17T18:13:33Z</time>
      </trkpt>
      <trkpt lat="45.81563" lon="2.96963">
        <ele>973</ele>
        <time>2015-10-17T18:15:33Z</time>
      </trkpt>
      <trkpt lat="45.81563" lon="2.96961">
        <ele>973</ele>
        <time>2015-10-17T18:17:33Z</time>
      </trkpt>
      <trkpt lat="45.81558" lon="2.96953">
        <ele>973</ele>
        <time>2015-10-17T18:19:33Z</time>
      </trkpt>
      <trkpt lat="45.81554" lon="2.96942">
        <ele>973</ele>
        <time>2015-10-17T18:21:33Z</time>
      </trkpt>
      <trkpt lat="45.81549" lon="2.96933">
        <ele>973</ele>
        <time>2015-10-17T18:23:33Z</time>
      </trkpt>
      <trkpt lat="45.81546" lon="2.96928">
        <ele>973</ele>
        <time>2015-10-17T18:25:33Z</time>
      </trkpt>
      <trkpt lat="45.81543" lon="2.96917">
        <ele>973</ele>
        <time>2015-10-17T18:27:33Z</time>
      </trkpt>
      <trkpt lat="45.81539" lon="2.96912">
        <ele>972</ele>
        <time>2015-10-17T18:29:33Z</time>
      </trkpt>
      <trkpt lat="45.81537" lon="2.96906">
        <ele>972</ele>
        <time>2015-10-17T18:31:33Z</time>
      </trkpt>
      <trkpt lat="45.81541" lon="2.96903">
        <ele>972</ele>
        <time>2015-10-17T18:33:33Z</time>
      </trkpt>
      <trkpt lat="45.81544" lon="2.96899">
        <ele>972</ele>
        <time>2015-10-17T18:35:33Z</time>
      </trkpt>
      <trkpt lat="45.81587" lon="2.96826">
        <ele>972</ele>
        <time>2015-10-17T18:37:33Z</time>
      </trkpt>
      <trkpt lat="45.8162" lon="2.96761">
        <ele>971</ele>
        <time>2015-10-17T18:39:33Z</time>
      </trkpt>
      <trkpt lat="45.81662" lon="2.96753">
        <ele>972</ele>
        <time>2015-10-17T18:41:33Z</time>
      </trkpt>
      <trkpt lat="45.81708" lon="2.96693">
        <ele>972</ele>
        <time>2015-10-17T18:43:33Z</time>
      </trkpt>
      <trkpt lat="45.81747" lon="2.96631">
        <ele>972</ele>
        <time>2015-10-17T18:45:33Z</time>
      </trkpt>
      <trkpt lat="45.81798" lon="2.96564">
        <ele>972</ele>
        <time>2015-10-17T18:47:33Z</time>
      </trkpt>
      <trkpt lat="45.81848" lon="2.96519">
        <ele>971</ele>
        <time>2015-10-17T18:49:33Z</time>
      </trkpt>
      <trkpt lat="45.81897" lon="2.96498">
        <ele>971</ele>
        <time>2015-10-17T18:51:33Z</time>
      </trkpt>
      <trkpt lat="45.81955" lon="2.96472">
        <ele>970</ele>
        <time>2015-10-17T18:53:33Z</time>
      </trkpt>
      <trkpt lat="45.82034" lon="2.96429">
        <ele>968</ele>
        <time>2015-10-17T18:55:33Z</time>
      </trkpt>
      <trkpt lat="45.82091" lon="2.96397">
        <ele>970</ele>
        <time>2015-10-17T18:57:33Z</time>
      </trkpt>
      <trkpt lat="45.82135" lon="2.96371">
        <ele>972</ele>
        <time>2015-10-17T18:59:33Z</time>
      </trkpt>
      <trkpt lat="45.82193" lon="2.96334">
        <ele>973</ele>
        <time>2015-10-17T19:01:33Z</time>
      </trkpt>
      <trkpt lat="45.82259" lon="2.96319">
        <ele>975</ele>
        <time>2015-10-17T19:03:33Z</time>
      </trkpt>
      <trkpt lat="45.82307" lon="2.96313">
        <ele>978</ele>
        <time>2015-10-17T19:05:33Z</time>
      </trkpt>
      <trkpt lat="45.82428" lon="2.96304">
        <ele>980</ele>
        <time>2015-10-17T19:07:33Z</time>
      </trkpt>
      <trkpt lat="45.82476" lon="2.9627">
        <ele>977</ele>
        <time>2015-10-17T19:09:33Z</time>
      </trkpt>
      <trkpt lat="45.82482" lon="2.96221">
        <ele>981</ele>
        <time>2015-10-17T19:11:33Z</time>
      </trkpt>
      <trkpt lat="45.82488" lon="2.96186">
        <ele>987</ele>
        <time>2015-10-17T19:13:33Z</time>
      </trkpt>
      <trkpt lat="45.82473" lon="2.96167">
        <ele>989</ele>
        <time>2015-10-17T19:15:33Z</time>
      </trkpt>
      <trkpt lat="45.82456" lon="2.96148">
        <ele>992</ele>
        <time>2015-10-17T19:17:33Z</time>
      </trkpt>
      <trkpt lat="45.82435" lon="2.96137">
        <ele>992</ele>
        <time>2015-10-17T19:19:33Z</time>
      </trkpt>
      <trkpt lat="45.8239" lon="2.96081">
        <ele>996</ele>
        <time>2015-10-17T19:21:33Z</time>
      </trkpt>
      <trkpt lat="45.82381" lon="2.9604">
        <ele>1001</ele>
        <time>2015-10-17T19:23:33Z</time>
      </trkpt>
      <trkpt lat="45.82428" lon="2.96013">
        <ele>1012</ele>
        <time>2015-10-17T19:25:33Z</time>
      </trkpt>
      <trkpt lat="45.82461" lon="2.95978">
        <ele>1021</ele>
        <time>2015-10-17T19:27:33Z</time>
      </trkpt>
      <trkpt lat="45.8248" lon="2.95935">
        <ele>1031</ele>
        <time>2015-10-17T19:29:33Z</time>
      </trkpt>
      <trkpt lat="45.82491" lon="2.9588">
        <ele>1043</ele>
        <time>2015-10-17T19:31:33Z</time>
      </trkpt>
      <trkpt lat="45.82506" lon="2.95843">
        <ele>1053</ele>
        <time>2015-10-17T19:33:33Z</time>
      </trkpt>
      <trkpt lat="45.82555" lon="2.958">
        <ele>1063</ele>
        <time>2015-10-17T19:35:33Z</time>
      </trkpt>
      <trkpt lat="45.82538" lon="2.95772">
        <ele>1068</ele>
        <time>2015-10-17T19:37:33Z</time>
      </trkpt>
      <trkpt lat="45.82525" lon="2.95693">
        <ele>1083</ele>
        <time>2015-10-17T19:39:33Z</time>
      </trkpt>
      <trkpt lat="45.82509" lon="2.95674">
        <ele>1088</ele>
        <time>2015-10-17T19:41:33Z</time>
      </trkpt>
      <trkpt lat="45.82498" lon="2.95626">
        <ele>1097</ele>
        <time>2015-10-17T19:43:33Z</time>
      </trkpt>
      <trkpt lat="45.82483" lon="2.95564">
        <ele>1103</ele>
        <time>2015-10-17T19:45:33Z</time>
      </trkpt>
      <trkpt lat="45.82485" lon="2.95525">
        <ele>1108</ele>
        <time>2015-10-17T19:47:33Z</time>
      </trkpt>
      <trkpt lat="45.82474" lon="2.95468">
        <ele>1111</ele>
        <time>2015-10-17T19:49:33Z</time>
      </trkpt>
      <trkpt lat="45.8247" lon="2.95414">
        <ele>1114</ele>
        <time>2015-10-17T19:51:33Z</time>
      </trkpt>
      <trkpt lat="45.82452" lon="2.95371">
        <ele>1113</ele>
        <time>2015-10-17T19:53:33Z</time>
      </trkpt>
      <trkpt lat="45.82426" lon="2.95332">
        <ele>1113</ele>
        <time>2015-10-17T19:55:33Z</time>
      </trkpt>
      <trkpt lat="45.82404" lon="2.95287">
        <ele>1107</ele>
        <time>2015-10-17T19:57:33Z</time>
      </trkpt>
      <trkpt lat="45.82389" lon="2.95251">
        <ele>1102</ele>
        <time>2015-10-17T19:59:33Z</time>
      </trkpt>
      <trkpt lat="45.82378" lon="2.95146">
        <ele>1096</ele>
        <time>2015-10-17T20:01:33Z</time>
      </trkpt>
      <trkpt lat="45.82369" lon="2.95103">
        <ele>1092</ele>
        <time>2015-10-17T20:03:33Z</time>
      </trkpt>
      <trkpt lat="45.82395" lon="2.95019">
        <ele>1091</ele>
        <time>2015-10-17T20:05:33Z</time>
      </trkpt>
      <trkpt lat="45.82414" lon="2.9506">
        <ele>1098</ele>
        <time>2015-10-17T20:07:33Z</time>
      </trkpt>
      <trkpt lat="45.82437" lon="2.95094">
        <ele>1099</ele>
        <time>2015-10-17T20:09:33Z</time>
      </trkpt>
      <trkpt lat="45.82495" lon="2.95133">
        <ele>1092</ele>
        <time>2015-10-17T20:11:33Z</time>
      </trkpt>
      <trkpt lat="45.82535" lon="2.95139">
        <ele>1092</ele>
        <time>2015-10-17T20:13:33Z</time>
      </trkpt>
      <trkpt lat="45.82597" lon="2.95169">
        <ele>1088</ele>
        <time>2015-10-17T20:15:33Z</time>
      </trkpt>
      <trkpt lat="45.82604" lon="2.95199">
        <ele>1087</ele>
        <time>2015-10-17T20:17:33Z</time>
      </trkpt>
      <trkpt lat="45.82627" lon="2.95197">
        <ele>1085</ele>
        <time>2015-10-17T20:19:33Z</time>
      </trkpt>
      <trkpt lat="45.82688" lon="2.95199">
        <ele>1078</ele>
        <time>2015-10-17T20:21:33Z</time>
      </trkpt>
      <trkpt lat="45.82751" lon="2.95159">
        <ele>1070</ele>
        <time>2015-10-17T20:23:33Z</time>
      </trkpt>
      <trkpt lat="45.82823" lon="2.95129">
        <ele>1059</ele>
        <time>2015-10-17T20:25:33Z</time>
      </trkpt>
      <trkpt lat="45.82897" lon="2.95109">
        <ele>1045</ele>
        <time>2015-10-17T20:27:33Z</time>
      </trkpt>
      <trkpt lat="45.82956" lon="2.95075">
        <ele>1031</ele>
        <time>2015-10-17T20:29:33Z</time>
      </trkpt>
      <trkpt lat="45.82999" lon="2.95071">
        <ele>1023</ele>
        <time>2015-10-17T20:31:33Z</time>
      </trkpt>
      <trkpt lat="45.83024" lon="2.95124">
        <ele>1024</ele>
        <time>2015-10-17T20:33:33Z</time>
      </trkpt>
      <trkpt lat="45.83042" lon="2.95201">
        <ele>1026</ele>
        <time>2015-10-17T20:35:33Z</time>
      </trkpt>
      <trkpt lat="45.83066" lon="2.95298">
        <ele>1028</ele>
        <time>2015-10-17T20:37:33Z</time>
      </trkpt>
      <trkpt lat="45.83089" lon="2.9536">
        <ele>1028</ele>
        <time>2015-10-17T20:39:33Z</time>
      </trkpt>
      <trkpt lat="45.8311" lon="2.95412">
        <ele>1030</ele>
        <time>2015-10-17T20:41:33Z</time>
      </trkpt>
      <trkpt lat="45.83123" lon="2.95483">
        <ele>1033</ele>
        <time>2015-10-17T20:43:33Z</time>
      </trkpt>
      <trkpt lat="45.83156" lon="2.95435">
        <ele>1027</ele>
        <time>2015-10-17T20:45:33Z</time>
      </trkpt>
      <trkpt lat="45.83204" lon="2.95438">
        <ele>1027</ele>
        <time>2015-10-17T20:47:33Z</time>
      </trkpt>
      <trkpt lat="45.83307" lon="2.95414">
        <ele>1024</ele>
        <time>2015-10-17T20:49:33Z</time>
      </trkpt>
      <trkpt lat="45.83353" lon="2.95399">
        <ele>1024</ele>
        <time>2015-10-17T20:51:33Z</time>
      </trkpt>
      <trkpt lat="45.83394" lon="2.95401">
        <ele>1028</ele>
        <time>2015-10-17T20:53:33Z</time>
      </trkpt>
      <trkpt lat="45.83434" lon="2.95438">
        <ele>1035</ele>
        <time>2015-10-17T20:55:33Z</time>
      </trkpt>
      <trkpt lat="45.83492" lon="2.95448">
        <ele>1033</ele>
        <time>2015-10-17T20:57:33Z</time>
      </trkpt>
      <trkpt lat="45.83542" lon="2.95483">
        <ele>1038</ele>
        <time>2015-10-17T20:59:33Z</time>
      </trkpt>
      <trkpt lat="45.83582" lon="2.95513">
        <ele>1041</ele>
        <time>2015-10-17T21:01:33Z</time>
      </trkpt>
      <trkpt lat="45.83609" lon="2.95549">
        <ele>1043</ele>
        <time>2015-10-17T21:03:33Z</time>
      </trkpt>
      <trkpt lat="45.83661" lon="2.95549">
        <ele>1034</ele>
        <time>2015-10-17T21:05:33Z</time>
      </trkpt>
      <trkpt lat="45.83685" lon="2.95603">
        <ele>1033</ele>
        <time>2015-10-17T21:07:33Z</time>
      </trkpt>
      <trkpt lat="45.83666" lon="2.95637">
        <ele>1035</ele>
        <time>2015-10-17T21:09:33Z</time>
      </trkpt>
      <trkpt lat="45.83645" lon="2.95671">
        <ele>1039</ele>
        <time>2015-10-17T21:11:33Z</time>
      </trkpt>
      <trkpt lat="45.83628" lon="2.9571">
        <ele>1042</ele>
        <time>2015-10-17T21:13:33Z</time>
      </trkpt>
      <trkpt lat="45.83613" lon="2.95764">
        <ele>1043</ele>
        <time>2015-10-17T21:15:33Z</time>
      </trkpt>
      <trkpt lat="45.83575" lon="2.95839">
        <ele>1044</ele>
        <time>2015-10-17T21:17:33Z</time>
      </trkpt>
      <trkpt lat="45.83554" lon="2.95873">
        <ele>1041</ele>
        <time>2015-10-17T21:19:33Z</time>
      </trkpt>
      <trkpt lat="45.83588" lon="2.95903">
        <ele>1035</ele>
        <time>2015-10-17T21:21:33Z</time>
      </trkpt>
      <trkpt lat="45.83664" lon="2.9591">
        <ele>1028</ele>
        <time>2015-10-17T21:23:33Z</time>
      </trkpt>
      <trkpt lat="45.83688" lon="2.95905">
        <ele>1027</ele>
        <time>2015-10-17T21:25:33Z</time>
      </trkpt>
      <trkpt lat="45.83667" lon="2.95965">
        <ele>1030</ele>
        <time>2015-10-17T21:27:33Z</time>
      </trkpt>
      <trkpt lat="45.83703" lon="2.96008">
        <ele>1035</ele>
        <time>2015-10-17T21:29:33Z</time>
      </trkpt>
      <trkpt lat="45.83727" lon="2.96017">
        <ele>1037</ele>
        <time>2015-10-17T21:31:33Z</time>
      </trkpt>
      <trkpt lat="45.8373" lon="2.96088">
        <ele>1044</ele>
        <time>2015-10-17T21:33:33Z</time>
      </trkpt>
      <trkpt lat="45.83736" lon="2.96139">
        <ele>1048</ele>
        <time>2015-10-17T21:35:33Z</time>
      </trkpt>
      <trkpt lat="45.83742" lon="2.96201">
        <ele>1053</ele>
        <time>2015-10-17T21:37:33Z</time>
      </trkpt>
      <trkpt lat="45.83805" lon="2.96223">
        <ele>1068</ele>
        <time>2015-10-17T21:39:33Z</time>
      </trkpt>
      <trkpt lat="45.83856" lon="2.96225">
        <ele>1078</ele>
        <time>2015-10-17T21:41:33Z</time>
      </trkpt>
      <trkpt lat="45.83914" lon="2.96225">
        <ele>1087</ele>
        <time>2015-10-17T21:43:33Z</time>
      </trkpt>
      <trkpt lat="45.83956" lon="2.96199">
        <ele>1090</ele>
        <time>2015-10-17T21:45:33Z</time>
      </trkpt>
      <trkpt lat="45.84025" lon="2.96227">
        <ele>1101</ele>
        <time>2015-10-17T21:47:33Z</time>
      </trkpt>
      <trkpt lat="45.84069" lon="2.96259">
        <ele>1111</ele>
        <time>2015-10-17T21:49:33Z</time>
      </trkpt>
      <trkpt lat="45.84104" lon="2.96289">
        <ele>1120</ele>
        <time>2015-10-17T21:51:33Z</time>
      </trkpt>
      <trkpt lat="45.84135" lon="2.96326">
        <ele>1130</ele>
        <time>2015-10-17T21:53:33Z</time>
      </trkpt>
      <trkpt lat="45.84183" lon="2.96354">
        <ele>1137</ele>
        <time>2015-10-17T21:55:33Z</time>
      </trkpt>
      <trkpt lat="45.84222" lon="2.96395">
        <ele>1135</ele>
        <time>2015-10-17T21:57:33Z</time>
      </trkpt>
      <trkpt lat="45.84249" lon="2.9644">
        <ele>1134</ele>
        <time>2015-10-17T21:59:33Z</time>
      </trkpt>
      <trkpt lat="45.84291" lon="2.96493">
        <ele>1133</ele>
        <time>2015-10-17T22:01:33Z</time>
      </trkpt>
      <trkpt lat="45.84341" lon="2.96508">
        <ele>1137</ele>
        <time>2015-10-17T22:03:33Z</time>
      </trkpt>
      <trkpt lat="45.84391" lon="2.96513">
        <ele>1139</ele>
        <time>2015-10-17T22:05:33Z</time>
      </trkpt>
      <trkpt lat="45.84391" lon="2.96463">
        <ele>1135</ele>
        <time>2015-10-17T22:07:33Z</time>
      </trkpt>
      <trkpt lat="45.84422" lon="2.96442">
        <ele>1133</ele>
        <time>2015-10-17T22:09:33Z</time>
      </trkpt>
      <trkpt lat="45.84461" lon="2.96472">
        <ele>1128</ele>
        <time>2015-10-17T22:11:33Z</time>
      </trkpt>
      <trkpt lat="45.84476" lon="2.96538">
        <ele>1130</ele>
        <time>2015-10-17T22:13:33Z</time>
      </trkpt>
      <trkpt lat="45.84527" lon="2.96553">
        <ele>1127</ele>
        <time>2015-10-17T22:15:33Z</time>
      </trkpt>
      <trkpt lat="45.84593" lon="2.96579">
        <ele>1135</ele>
        <time>2015-10-17T22:17:33Z</time>
      </trkpt>
      <trkpt lat="45.84613" lon="2.96656">
        <ele>1140</ele>
        <time>2015-10-17T22:19:33Z</time>
      </trkpt>
      <trkpt lat="45.84664" lon="2.96667">
        <ele>1150</ele>
        <time>2015-10-17T22:21:33Z</time>
      </trkpt>
      <trkpt lat="45.84678" lon="2.96714">
        <ele>1145</ele>
        <time>2015-10-17T22:23:33Z</time>
      </trkpt>
      <trkpt lat="45.84696" lon="2.96759">
        <ele>1141</ele>
        <time>2015-10-17T22:25:33Z</time>
      </trkpt>
      <trkpt lat="45.84715" lon="2.96809">
        <ele>1138</ele>
        <time>2015-10-17T22:27:33Z</time>
      </trkpt>
      <trkpt lat="45.84747" lon="2.96854">
        <ele>1140</ele>
        <time>2015-10-17T22:29:33Z</time>
      </trkpt>
      <trkpt lat="45.84794" lon="2.9689">
        <ele>1137</ele>
        <time>2015-10-17T22:31:33Z</time>
      </trkpt>
      <trkpt lat="45.84851" lon="2.9686">
        <ele>1129</ele>
        <time>2015-10-17T22:33:33Z</time>
      </trkpt>
      <trkpt lat="45.84887" lon="2.96824">
        <ele>1121</ele>
        <time>2015-10-17T22:35:33Z</time>
      </trkpt>
      <trkpt lat="45.84918" lon="2.96742">
        <ele>1115</ele>
        <time>2015-10-17T22:37:33Z</time>
      </trkpt>
      <trkpt lat="45.84975" lon="2.96721">
        <ele>1101</ele>
        <time>2015-10-17T22:39:33Z</time>
      </trkpt>
      <trkpt lat="45.85056" lon="2.96658">
        <ele>1080</ele>
        <time>2015-10-17T22:41:33Z</time>
      </trkpt>
      <trkpt lat="45.85102" lon="2.9659">
        <ele>1066</ele>
        <time>2015-10-17T22:43:33Z</time>
      </trkpt>
      <trkpt lat="45.85119" lon="2.96555">
        <ele>1059</ele>
        <time>2015-10-17T22:45:33Z</time>
      </trkpt>
      <trkpt lat="45.85143" lon="2.96463">
        <ele>1045</ele>
        <time>2015-10-17T22:47:33Z</time>
      </trkpt>
      <trkpt lat="45.85161" lon="2.96386">
        <ele>1038</ele>
        <time>2015-10-17T22:49:33Z</time>
      </trkpt>
      <trkpt lat="45.85192" lon="2.96437">
        <ele>1037</ele>
        <time>2015-10-17T22:51:33Z</time>
      </trkpt>
      <trkpt lat="45.8522" lon="2.96478">
        <ele>1035</ele>
        <time>2015-10-17T22:53:33Z</time>
      </trkpt>
      <trkpt lat="45.85241" lon="2.96532">
        <ele>1029</ele>
        <time>2015-10-17T22:55:33Z</time>
      </trkpt>
      <trkpt lat="45.85258" lon="2.96585">
        <ele>1024</ele>
        <time>2015-10-17T22:57:33Z</time>
      </trkpt>
      <trkpt lat="45.85267" lon="2.96616">
        <ele>1022</ele>
        <time>2015-10-17T22:59:33Z</time>
      </trkpt>
      <trkpt lat="45.85297" lon="2.9665">
        <ele>1017</ele>
        <time>2015-10-17T23:01:33Z</time>
      </trkpt>
      <trkpt lat="45.85285" lon="2.96701">
        <ele>1017</ele>
        <time>2015-10-17T23:03:33Z</time>
      </trkpt>
      <trkpt lat="45.8528" lon="2.96731">
        <ele>1016</ele>
        <time>2015-10-17T23:05:33Z</time>
      </trkpt>
      <trkpt lat="45.85252" lon="2.96766">
        <ele>1019</ele>
        <time>2015-10-17T23:07:33Z</time>
      </trkpt>
      <trkpt lat="45.85222" lon="2.96837">
        <ele>1021</ele>
        <time>2015-10-17T23:09:33Z</time>
      </trkpt>
      <trkpt lat="45.8525" lon="2.96937">
        <ele>1014</ele>
        <time>2015-10-17T23:11:33Z</time>
      </trkpt>
      <trkpt lat="45.85247" lon="2.97004">
        <ele>1010</ele>
        <time>2015-10-17T23:13:33Z</time>
      </trkpt>
      <trkpt lat="45.85243" lon="2.97036">
        <ele>1009</ele>
        <time>2015-10-17T23:15:33Z</time>
      </trkpt>
      <trkpt lat="45.85219" lon="2.97073">
        <ele>1008</ele>
        <time>2015-10-17T23:17:33Z</time>
      </trkpt>
      <trkpt lat="45.85216" lon="2.97118">
        <ele>1006</ele>
        <time>2015-10-17T23:19:33Z</time>
      </trkpt>
      <trkpt lat="45.85187" lon="2.97167">
        <ele>1004</ele>
        <time>2015-10-17T23:21:33Z</time>
      </trkpt>
      <trkpt lat="45.85164" lon="2.97218">
        <ele>1003</ele>
        <time>2015-10-17T23:23:33Z</time>
      </trkpt>
      <trkpt lat="45.85164" lon="2.97249">
        <ele>1002</ele>
        <time>2015-10-17T23:25:33Z</time>
      </trkpt>
      <trkpt lat="45.85125" lon="2.97287">
        <ele>998</ele>
        <time>2015-10-17T23:27:33Z</time>
      </trkpt>
      <trkpt lat="45.85104" lon="2.97321">
        <ele>993</ele>
        <time>2015-10-17T23:29:33Z</time>
      </trkpt>
      <trkpt lat="45.85083" lon="2.97349">
        <ele>987</ele>
        <time>2015-10-17T23:31:33Z</time>
      </trkpt>
      <trkpt lat="45.85065" lon="2.97373">
        <ele>982</ele>
        <time>2015-10-17T23:33:33Z</time>
      </trkpt>
      <trkpt lat="45.85044" lon="2.97367">
        <ele>985</ele>
        <time>2015-10-17T23:35:33Z</time>
      </trkpt>
      <trkpt lat="45.84989" lon="2.97388">
        <ele>981</ele>
        <time>2015-10-17T23:37:33Z</time>
      </trkpt>
      <trkpt lat="45.84951" lon="2.97392">
        <ele>980</ele>
        <time>2015-10-17T23:39:33Z</time>
      </trkpt>
      <trkpt lat="45.84921" lon="2.97397">
        <ele>979</ele>
        <time>2015-10-17T23:41:33Z</time>
      </trkpt>
      <trkpt lat="45.84888" lon="2.97414">
        <ele>973</ele>
        <time>2015-10-17T23:43:33Z</time>
      </trkpt>
      <trkpt lat="45.84866" lon="2.97422">
        <ele>970</ele>
        <time>2015-10-17T23:45:33Z</time>
      </trkpt>
      <trkpt lat="45.84817" lon="2.97467">
        <ele>957</ele>
        <time>2015-10-17T23:47:33Z</time>
      </trkpt>
      <trkpt lat="45.84785" lon="2.97482">
        <ele>953</ele>
        <time>2015-10-17T23:49:33Z</time>
      </trkpt>
      <trkpt lat="45.84758" lon="2.97504">
        <ele>947</ele>
        <time>2015-10-17T23:51:33Z</time>
      </trkpt>
      <trkpt lat="45.84732" lon="2.97523">
        <ele>942</ele>
        <time>2015-10-17T23:53:33Z</time>
      </trkpt>
      <trkpt lat="45.84696" lon="2.97538">
        <ele>938</ele>
        <time>2015-10-17T23:55:33Z</time>
      </trkpt>
      <trkpt lat="45.8467" lon="2.97551">
        <ele>934</ele>
        <time>2015-10-17T23:57:33Z</time>
      </trkpt>
      <trkpt lat="45.84615" lon="2.97566">
        <ele>930</ele>
        <time>2015-10-17T23:59:33Z</time>
      </trkpt>
      <trkpt lat="45.8459" lon="2.97577">
        <ele>928</ele>
        <time>2015-10-18T00:01:33Z</time>
      </trkpt>
      <trkpt lat="45.84564" lon="2.97577">
        <ele>927</ele>
        <time>2015-10-18T00:03:33Z</time>
      </trkpt>
      <trkpt lat="45.84525" lon="2.97562">
        <ele>927</ele>
        <time>2015-10-18T00:05:33Z</time>
      </trkpt>
      <trkpt lat="45.84498" lon="2.97545">
        <ele>928</ele>
        <time>2015-10-18T00:07:33Z</time>
      </trkpt>
      <trkpt lat="45.84467" lon="2.97521">
        <ele>928</ele>
        <time>2015-10-18T00:09:33Z</time>
      </trkpt>
      <trkpt lat="45.84428" lon="2.97527">
        <ele>924</ele>
        <time>2015-10-18T00:11:33Z</time>
      </trkpt>
      <trkpt lat="45.84403" lon="2.97536">
        <ele>921</ele>
        <time>2015-10-18T00:13:33Z</time>
      </trkpt>
      <trkpt lat="45.84379" lon="2.97545">
        <ele>918</ele>
        <time>2015-10-18T00:15:33Z</time>
      </trkpt>
      <trkpt lat="45.84358" lon="2.9756">
        <ele>914</ele>
        <time>2015-10-18T00:17:33Z</time>
      </trkpt>
      <trkpt lat="45.84337" lon="2.97624">
        <ele>904</ele>
        <time>2015-10-18T00:19:33Z</time>
      </trkpt>
      <trkpt lat="45.84326" lon="2.97678">
        <ele>898</ele>
        <time>2015-10-18T00:21:33Z</time>
      </trkpt>
      <trkpt lat="45.84309" lon="2.97733">
        <ele>893</ele>
        <time>2015-10-18T00:23:33Z</time>
      </trkpt>
      <trkpt lat="45.84349" lon="2.9777">
        <ele>891</ele>
        <time>2015-10-18T00:25:33Z</time>
      </trkpt>
      <trkpt lat="45.84391" lon="2.97815">
        <ele>890</ele>
        <time>2015-10-18T00:27:33Z</time>
      </trkpt>
      <trkpt lat="45.84431" lon="2.9786">
        <ele>888</ele>
        <time>2015-10-18T00:29:33Z</time>
      </trkpt>
      <trkpt lat="45.84424" lon="2.97965">
        <ele>883</ele>
        <time>2015-10-18T00:31:33Z</time>
      </trkpt>
      <trkpt lat="45.84421" lon="2.9806">
        <ele>879</ele>
        <time>2015-10-18T00:33:33Z</time>
      </trkpt>
      <trkpt lat="45.84422" lon="2.98111">
        <ele>878</ele>
        <time>2015-10-18T00:35:33Z</time>
      </trkpt>
      <trkpt lat="45.84415" lon="2.98158">
        <ele>877</ele>
        <time>2015-10-18T00:37:33Z</time>
      </trkpt>
      <trkpt lat="45.84409" lon="2.98208">
        <ele>874</ele>
        <time>2015-10-18T00:39:33Z</time>
      </trkpt>
      <trkpt lat="45.84407" lon="2.98261">
        <ele>870</ele>
        <time>2015-10-18T00:41:33Z</time>
      </trkpt>
      <trkpt lat="45.84409" lon="2.98334">
        <ele>862</ele>
        <time>2015-10-18T00:43:33Z</time>
      </trkpt>
      <trkpt lat="45.8441" lon="2.98405">
        <ele>860</ele>
        <time>2015-10-18T00:45:33Z</time>
      </trkpt>
      <trkpt lat="45.84395" lon="2.98476">
        <ele>857</ele>
        <time>2015-10-18T00:47:33Z</time>
      </trkpt>
      <trkpt lat="45.84389" lon="2.98525">
        <ele>854</ele>
        <time>2015-10-18T00:49:33Z</time>
      </trkpt>
      <trkpt lat="45.84382" lon="2.986">
        <ele>850</ele>
        <time>2015-10-18T00:51:33Z</time>
      </trkpt>
      <trkpt lat="45.84374" lon="2.98693">
        <ele>848</ele>
        <time>2015-10-18T00:53:33Z</time>
      </trkpt>
      <trkpt lat="45.8437" lon="2.98781">
        <ele>847</ele>
        <time>2015-10-18T00:55:33Z</time>
      </trkpt>
      <trkpt lat="45.8437" lon="2.98847">
        <ele>845</ele>
        <time>2015-10-18T00:57:33Z</time>
      </trkpt>
      <trkpt lat="45.84413" lon="2.98849">
        <ele>844</ele>
        <time>2015-10-18T00:59:33Z</time>
      </trkpt>
      <trkpt lat="45.84454" lon="2.98862">
        <ele>845</ele>
        <time>2015-10-18T01:01:33Z</time>
      </trkpt>
      <trkpt lat="45.84492" lon="2.98856">
        <ele>847</ele>
        <time>2015-10-18T01:03:33Z</time>
      </trkpt>
      <trkpt lat="45.84491" lon="2.98959">
        <ele>844</ele>
        <time>2015-10-18T01:05:33Z</time>
      </trkpt>
      <trkpt lat="45.84491" lon="2.99006">
        <ele>842</ele>
        <time>2015-10-18T01:07:33Z</time>
      </trkpt>
      <trkpt lat="45.8448" lon="2.99068">
        <ele>840</ele>
        <time>2015-10-18T01:09:33Z</time>
      </trkpt>
      <trkpt lat="45.84477" lon="2.99109">
        <ele>838</ele>
        <time>2015-10-18T01:11:33Z</time>
      </trkpt>
      <trkpt lat="45.84465" lon="2.99178">
        <ele>836</ele>
        <time>2015-10-18T01:13:33Z</time>
      </trkpt>
      <trkpt lat="45.84449" lon="2.99203">
        <ele>834</ele>
        <time>2015-10-18T01:15:33Z</time>
      </trkpt>
      <trkpt lat="45.84494" lon="2.99233">
        <ele>838</ele>
        <time>2015-10-18T01:17:33Z</time>
      </trkpt>
      <trkpt lat="45.84554" lon="2.99268">
        <ele>838</ele>
        <time>2015-10-18T01:19:33Z</time>
      </trkpt>
      <trkpt lat="45.84618" lon="2.99319">
        <ele>836</ele>
        <time>2015-10-18T01:21:33Z</time>
      </trkpt>
      <trkpt lat="45.84654" lon="2.99356">
        <ele>835</ele>
        <time>2015-10-18T01:23:33Z</time>
      </trkpt>
      <trkpt lat="45.84721" lon="2.99426">
        <ele>832</ele>
        <time>2015-10-18T01:25:33Z</time>
      </trkpt>
      <trkpt lat="45.84766" lon="2.99476">
        <ele>827</ele>
        <time>2015-10-18T01:27:33Z</time>
      </trkpt>
      <trkpt lat="45.84797" lon="2.99519">
        <ele>824</ele>
        <time>2015-10-18T01:29:33Z</time>
      </trkpt>
      <trkpt lat="45.8483" lon="2.99562">
        <ele>821</ele>
        <time>2015-10-18T01:31:33Z</time>
      </trkpt>
      <trkpt lat="45.84863" lon="2.996">
        <ele>819</ele>
        <time>2015-10-18T01:33:33Z</time>
      </trkpt>
      <trkpt lat="45.84896" lon="2.99637">
        <ele>818</ele>
        <time>2015-10-18T01:35:33Z</time>
      </trkpt>
      <trkpt lat="45.84923" lon="2.99673">
        <ele>818</ele>
        <time>2015-10-18T01:37:33Z</time>
      </trkpt>
      <trkpt lat="45.84956" lon="2.99708">
        <ele>818</ele>
        <time>2015-10-18T01:39:33Z</time>
      </trkpt>
      <trkpt lat="45.8499" lon="2.99751">
        <ele>817</ele>
        <time>2015-10-18T01:41:33Z</time>
      </trkpt>
      <trkpt lat="45.85027" lon="2.99763">
        <ele>817</ele>
        <time>2015-10-18T01:43:33Z</time>
      </trkpt>
      <trkpt lat="45.85066" lon="2.99783">
        <ele>815</ele>
        <time>2015-10-18T01:45:33Z</time>
      </trkpt>
      <trkpt lat="45.85086" lon="2.99828">
        <ele>813</ele>
        <time>2015-10-18T01:47:33Z</time>
      </trkpt>
      <trkpt lat="45.85134" lon="2.99847">
        <ele>810</ele>
        <time>2015-10-18T01:49:33Z</time>
      </trkpt>
      <trkpt lat="45.85192" lon="2.99877">
        <ele>807</ele>
        <time>2015-10-18T01:51:33Z</time>
      </trkpt>
      <trkpt lat="45.85204" lon="2.99905">
        <ele>806</ele>
        <time>2015-10-18T01:53:33Z</time>
      </trkpt>
      <trkpt lat="45.8525" lon="2.99944">
        <ele>803</ele>
        <time>2015-10-18T01:55:33Z</time>
      </trkpt>
      <trkpt lat="45.85308" lon="2.9998">
        <ele>798</ele>
        <time>2015-10-18T01:57:33Z</time>
      </trkpt>
      <trkpt lat="45.85361" lon="3.00006">
        <ele>794</ele>
        <time>2015-10-18T01:59:33Z</time>
      </trkpt>
      <trkpt lat="45.85404" lon="3.00019">
        <ele>791</ele>
        <time>2015-10-18T02:01:33Z</time>
      </trkpt>
      <trkpt lat="45.85438" lon="3.0007">
        <ele>787</ele>
        <time>2015-10-18T02:03:33Z</time>
      </trkpt>
      <trkpt lat="45.85468" lon="3.00107">
        <ele>783</ele>
        <time>2015-10-18T02:05:33Z</time>
      </trkpt>
      <trkpt lat="45.855" lon="3.00145">
        <ele>778</ele>
        <time>2015-10-18T02:07:33Z</time>
      </trkpt>
      <trkpt lat="45.85521" lon="3.00197">
        <ele>777</ele>
        <time>2015-10-18T02:09:33Z</time>
      </trkpt>
      <trkpt lat="45.85528" lon="3.00238">
        <ele>776</ele>
        <time>2015-10-18T02:11:33Z</time>
      </trkpt>
      <trkpt lat="45.85552" lon="3.00291">
        <ele>775</ele>
        <time>2015-10-18T02:13:33Z</time>
      </trkpt>
      <trkpt lat="45.8558" lon="3.00347">
        <ele>775</ele>
        <time>2015-10-18T02:15:33Z</time>
      </trkpt>
      <trkpt lat="45.85586" lon="3.00272">
        <ele>776</ele>
        <time>2015-10-18T02:17:33Z</time>
      </trkpt>
      <trkpt lat="45.85594" lon="3.00195">
        <ele>778</ele>
        <time>2015-10-18T02:19:33Z</time>
      </trkpt>
      <trkpt lat="45.85592" lon="3.00128">
        <ele>780</ele>
        <time>2015-10-18T02:21:33Z</time>
      </trkpt>
      <trkpt lat="45.85604" lon="3.00047">
        <ele>785</ele>
        <time>2015-10-18T02:23:33Z</time>
      </trkpt>
      <trkpt lat="45.85604" lon="2.99976">
        <ele>787</ele>
        <time>2015-10-18T02:25:33Z</time>
      </trkpt>
      <trkpt lat="45.85607" lon="2.99899">
        <ele>789</ele>
        <time>2015-10-18T02:27:33Z</time>
      </trkpt>
      <trkpt lat="45.85604" lon="2.99838">
        <ele>790</ele>
        <time>2015-10-18T02:29:33Z</time>
      </trkpt>
      <trkpt lat="45.85669" lon="2.99802">
        <ele>792</ele>
        <time>2015-10-18T02:31:33Z</time>
      </trkpt>
      <trkpt lat="45.85705" lon="2.99768">
        <ele>794</ele>
        <time>2015-10-18T02:33:33Z</time>
      </trkpt>
      <trkpt lat="45.85749" lon="2.99748">
        <ele>795</ele>
        <time>2015-10-18T02:35:33Z</time>
      </trkpt>
      <trkpt lat="45.85782" lon="2.99781">
        <ele>796</ele>
        <time>2015-10-18T02:37:33Z</time>
      </trkpt>
      <trkpt lat="45.85858" lon="2.99796">
        <ele>801</ele>
        <time>2015-10-18T02:39:33Z</time>
      </trkpt>
      <trkpt lat="45.85906" lon="2.99761">
        <ele>809</ele>
        <time>2015-10-18T02:41:33Z</time>
      </trkpt>
      <trkpt lat="45.85929" lon="2.99703">
        <ele>817</ele>
        <time>2015-10-18T02:43:33Z</time>
      </trkpt>
      <trkpt lat="45.85985" lon="2.99695">
        <ele>823</ele>
        <time>2015-10-18T02:45:33Z</time>
      </trkpt>
      <trkpt lat="45.86042" lon="2.99663">
        <ele>836</ele>
        <time>2015-10-18T02:47:33Z</time>
      </trkpt>
      <trkpt lat="45.86051" lon="2.99632">
        <ele>843</ele>
        <time>2015-10-18T02:49:33Z</time>
      </trkpt>
      <trkpt lat="45.86075" lon="2.9963">
        <ele>847</ele>
        <time>2015-10-18T02:51:33Z</time>
      </trkpt>
      <trkpt lat="45.86056" lon="2.9959">
        <ele>851</ele>
        <time>2015-10-18T02:53:33Z</time>
      </trkpt>
      <trkpt lat="45.86051" lon="2.99538">
        <ele>859</ele>
        <time>2015-10-18T02:55:33Z</time>
      </trkpt>
      <trkpt lat="45.86065" lon="2.99482">
        <ele>870</ele>
        <time>2015-10-18T02:57:33Z</time>
      </trkpt>
      <trkpt lat="45.86099" lon="2.99448">
        <ele>875</ele>
        <time>2015-10-18T02:59:33Z</time>
      </trkpt>
      <trkpt lat="45.86105" lon="2.99414">
        <ele>877</ele>
        <time>2015-10-18T03:01:33Z</time>
      </trkpt>
      <trkpt lat="45.86126" lon="2.99377">
        <ele>877</ele>
        <time>2015-10-18T03:03:33Z</time>
      </trkpt>
      <trkpt lat="45.86175" lon="2.99343">
        <ele>875</ele>
        <time>2015-10-18T03:05:33Z</time>
      </trkpt>
      <trkpt lat="45.86211" lon="2.99285">
        <ele>876</ele>
        <time>2015-10-18T03:07:33Z</time>
      </trkpt>
      <trkpt lat="45.86223" lon="2.99255">
        <ele>878</ele>
        <time>2015-10-18T03:09:33Z</time>
      </trkpt>
      <trkpt lat="45.86247" lon="2.99251">
        <ele>879</ele>
        <time>2015-10-18T03:11:33Z</time>
      </trkpt>
      <trkpt lat="45.86265" lon="2.99276">
        <ele>877</ele>
        <time>2015-10-18T03:13:33Z</time>
      </trkpt>
      <trkpt lat="45.86298" lon="2.99323">
        <ele>875</ele>
        <time>2015-10-18T03:15:33Z</time>
      </trkpt>
      <trkpt lat="45.86323" lon="2.99392">
        <ele>873</ele>
        <time>2015-10-18T03:17:33Z</time>
      </trkpt>
      <trkpt lat="45.8634" lon="2.99401">
        <ele>873</ele>
        <time>2015-10-18T03:19:33Z</time>
      </trkpt>
      <trkpt lat="45.86362" lon="2.99429">
        <ele>872</ele>
        <time>2015-10-18T03:21:33Z</time>
      </trkpt>
      <trkpt lat="45.86372" lon="2.99403">
        <ele>873</ele>
        <time>2015-10-18T03:23:33Z</time>
      </trkpt>
      <trkpt lat="45.86419" lon="2.99377">
        <ele>873</ele>
        <time>2015-10-18T03:25:33Z</time>
      </trkpt>
      <trkpt lat="45.86462" lon="2.99336">
        <ele>871</ele>
        <time>2015-10-18T03:27:33Z</time>
      </trkpt>
      <trkpt lat="45.86498" lon="2.99304">
        <ele>871</ele>
        <time>2015-10-18T03:29:33Z</time>
      </trkpt>
      <trkpt lat="45.86523" lon="2.99266">
        <ele>869</ele>
        <time>2015-10-18T03:31:33Z</time>
      </trkpt>
      <trkpt lat="45.86523" lon="2.9922">
        <ele>869</ele>
        <time>2015-10-18T03:33:33Z</time>
      </trkpt>
      <trkpt lat="45.86519" lon="2.99173">
        <ele>870</ele>
        <time>2015-10-18T03:35:33Z</time>
      </trkpt>
      <trkpt lat="45.86534" lon="2.9916">
        <ele>868</ele>
        <time>2015-10-18T03:37:33Z</time>
      </trkpt>
      <trkpt lat="45.8654" lon="2.9913">
        <ele>868</ele>
        <time>2015-10-18T03:39:33Z</time>
      </trkpt>
      <trkpt lat="45.86573" lon="2.9907">
        <ele>860</ele>
        <time>2015-10-18T03:41:33Z</time>
      </trkpt>
      <trkpt lat="45.86595" lon="2.9907">
        <ele>856</ele>
        <time>2015-10-18T03:43:33Z</time>
      </trkpt>
      <trkpt lat="45.86615" lon="2.98948">
        <ele>852</ele>
        <time>2015-10-18T03:45:33Z</time>
      </trkpt>
      <trkpt lat="45.86609" lon="2.98903">
        <ele>850</ele>
        <time>2015-10-18T03:47:33Z</time>
      </trkpt>
      <trkpt lat="45.86577" lon="2.98886">
        <ele>851</ele>
        <time>2015-10-18T03:49:33Z</time>
      </trkpt>
      <trkpt lat="45.86561" lon="2.98856">
        <ele>853</ele>
        <time>2015-10-18T03:51:33Z</time>
      </trkpt>
      <trkpt lat="45.86564" lon="2.98811">
        <ele>852</ele>
        <time>2015-10-18T03:53:33Z</time>
      </trkpt>
      <trkpt lat="45.86582" lon="2.98768">
        <ele>852</ele>
        <time>2015-10-18T03:55:33Z</time>
      </trkpt>
      <trkpt lat="45.86613" lon="2.98746">
        <ele>851</ele>
        <time>2015-10-18T03:57:33Z</time>
      </trkpt>
      <trkpt lat="45.86685" lon="2.98755">
        <ele>841</ele>
        <time>2015-10-18T03:59:33Z</time>
      </trkpt>
      <trkpt lat="45.86727" lon="2.98798">
        <ele>832</ele>
        <time>2015-10-18T04:01:33Z</time>
      </trkpt>
      <trkpt lat="45.86759" lon="2.98843">
        <ele>828</ele>
        <time>2015-10-18T04:03:33Z</time>
      </trkpt>
      <trkpt lat="45.86816" lon="2.98873">
        <ele>818</ele>
        <time>2015-10-18T04:05:33Z</time>
      </trkpt>
      <trkpt lat="45.86866" lon="2.98879">
        <ele>809</ele>
        <time>2015-10-18T04:07:33Z</time>
      </trkpt>
      <trkpt lat="45.86912" lon="2.98909">
        <ele>802</ele>
        <time>2015-10-18T04:09:33Z</time>
      </trkpt>
      <trkpt lat="45.86957" lon="2.98954">
        <ele>800</ele>
        <time>2015-10-18T04:11:33Z</time>
      </trkpt>
      <trkpt lat="45.86994" lon="2.9901">
        <ele>798</ele>
        <time>2015-10-18T04:13:33Z</time>
      </trkpt>
      <trkpt lat="45.87025" lon="2.99055">
        <ele>796</ele>
        <time>2015-10-18T04:15:33Z</time>
      </trkpt>
      <trkpt lat="45.87061" lon="2.99105">
        <ele>792</ele>
        <time>2015-10-18T04:17:33Z</time>
      </trkpt>
      <trkpt lat="45.87079" lon="2.99148">
        <ele>788</ele>
        <time>2015-10-18T04:19:33Z</time>
      </trkpt>
      <trkpt lat="45.87111" lon="2.99171">
        <ele>785</ele>
        <time>2015-10-18T04:21:33Z</time>
      </trkpt>
      <trkpt lat="45.87121" lon="2.99126">
        <ele>788</ele>
        <time>2015-10-18T04:23:33Z</time>
      </trkpt>
      <trkpt lat="45.87152" lon="2.9907">
        <ele>791</ele>
        <time>2015-10-18T04:25:33Z</time>
      </trkpt>
      <trkpt lat="45.87203" lon="2.99025">
        <ele>788</ele>
        <time>2015-10-18T04:27:33Z</time>
      </trkpt>
      <trkpt lat="45.87229" lon="2.99012">
        <ele>786</ele>
        <time>2015-10-18T04:29:33Z</time>
      </trkpt>
      <trkpt lat="45.87249" lon="2.99045">
        <ele>784</ele>
        <time>2015-10-18T04:31:33Z</time>
      </trkpt>
    </trkseg>
  </trk>
</gpx>